Time;durP1;ratioP1;P1;durP2;ratioP2;P2;SDS_P1;SDS_P2;PMS_P1;PMS_P2;Temp;Humidity;BMP_temperature;BMP_pressure;BME280_temperature;BME280_humidity;BME280_pressure;Samples;Min_cycle;Max_cycle;Signal;HPM_P1;HPM_P2
2022/05/31 00:02:07;;;;;;;7.10;2.15;;;9.00;99.90;;;;;;5029644;28;20395;-70
2022/05/31 00:04:33;;;;;;;6.53;2.00;;;9.00;99.90;;;;;;4939418;28;229288;-69
2022/05/31 00:07:00;;;;;;;7.75;1.83;;;9.00;99.90;;;;;;5007947;28;20077;-70
2022/05/31 00:09:27;;;;;;;8.30;2.20;;;9.00;99.90;;;;;;4952963;28;212826;-70
2022/05/31 00:11:54;;;;;;;7.28;2.03;;;9.00;99.90;;;;;;5001612;28;20049;-69
2022/05/31 00:14:20;;;;;;;8.20;2.20;;;9.00;99.90;;;;;;4954240;28;143848;-69
2022/05/31 00:16:47;;;;;;;7.55;2.22;;;9.10;99.90;;;;;;5026165;28;20053;-69
2022/05/31 00:19:15;;;;;;;6.55;2.22;;;9.10;99.90;;;;;;4956702;28;229126;-69
2022/05/31 00:21:49;;;;;;;12.40;2.50;;;9.10;99.90;;;;;;5028238;28;20072;-69
2022/05/31 00:24:19;;;;;;;9.05;2.33;;;9.10;99.90;;;;;;4969939;28;213682;-68
2022/05/31 00:26:45;;;;;;;8.25;2.25;;;9.20;99.90;;;;;;5030264;28;20052;-70
2022/05/31 00:29:12;;;;;;;7.38;2.20;;;9.20;99.90;;;;;;4957822;28;253352;-68
2022/05/31 00:31:40;;;;;;;7.80;2.30;;;9.20;99.90;;;;;;5029853;28;20045;-69
2022/05/31 00:34:08;;;;;;;7.50;2.17;;;9.10;99.90;;;;;;4958805;28;214251;-69
2022/05/31 00:36:36;;;;;;;6.85;2.20;;;9.20;99.90;;;;;;5016619;28;20057;-69
2022/05/31 00:39:03;;;;;;;7.95;2.20;;;9.20;99.90;;;;;;4957342;28;220141;-70
2022/05/31 00:41:29;;;;;;;6.93;2.28;;;9.20;99.90;;;;;;5005161;28;20537;-69
2022/05/31 00:44:03;;;;;;;7.88;2.40;;;9.20;99.90;;;;;;4968997;28;212743;-69
2022/05/31 00:46:58;;;;;;;7.88;2.40;;;9.20;99.90;;;;;;4989695;28;20049;-70
2022/05/31 00:50:07;;;;;;;7.93;2.20;;;9.20;99.90;;;;;;4963341;28;213040;-69
2022/05/31 00:52:48;;;;;;;8.85;2.28;;;9.20;99.90;;;;;;4958791;28;20057;-70
2022/05/31 00:55:22;;;;;;;6.90;2.35;;;9.20;99.90;;;;;;4892882;28;210170;-70
2022/05/31 00:57:56;;;;;;;7.63;2.53;;;9.10;99.90;;;;;;4954087;28;20089;-69
2022/05/31 01:00:22;;;;;;;7.75;2.40;;;9.20;99.90;;;;;;4893350;28;293287;-70
2022/05/31 01:02:49;;;;;;;7.00;2.50;;;9.10;99.90;;;;;;4962014;28;20050;-69
2022/05/31 01:05:17;;;;;;;8.57;2.40;;;9.10;99.90;;;;;;4865450;28;242212;-69
2022/05/31 01:07:43;;;;;;;7.63;2.50;;;9.10;99.90;;;;;;4953955;28;20069;-70
2022/05/31 01:10:12;;;;;;;8.60;2.65;;;9.20;99.90;;;;;;4907419;28;215188;-69
2022/05/31 01:12:42;;;;;;;6.25;2.20;;;9.10;99.90;;;;;;4964157;28;20408;-68
2022/05/31 01:15:10;;;;;;;8.48;2.58;;;9.20;99.90;;;;;;4910437;28;203228;-69
2022/05/31 01:17:39;;;;;;;7.18;2.58;;;9.10;99.90;;;;;;4963998;28;20491;-69
2022/05/31 01:20:07;;;;;;;7.82;2.50;;;9.10;99.90;;;;;;4868217;28;211514;-68
2022/05/31 01:22:52;;;;;;;6.75;2.55;;;9.20;99.90;;;;;;4957610;28;20499;-69
2022/05/31 01:25:24;;;;;;;7.22;2.45;;;9.20;99.90;;;;;;4875369;28;215114;-69
2022/05/31 01:28:28;;;;;;;8.88;2.35;;;9.20;99.90;;;;;;4959627;28;20050;-70
2022/05/31 01:31:07;;;;;;;7.75;2.67;;;9.20;99.90;;;;;;4955161;28;142871;-68
2022/05/31 01:33:44;;;;;;;8.20;3.07;;;9.20;99.90;;;;;;4979899;28;207462;-69
2022/05/31 01:36:16;;;;;;;7.22;2.90;;;9.20;99.90;;;;;;4970634;28;207521;-68
2022/05/31 01:38:50;;;;;;;9.57;2.95;;;9.20;99.90;;;;;;4977059;28;210823;-69
2022/05/31 01:41:28;;;;;;;8.15;2.72;;;9.20;99.90;;;;;;4996511;28;85787;-69
2022/05/31 01:43:57;;;;;;;8.55;2.90;;;9.20;99.90;;;;;;4972917;28;210159;-69
2022/05/31 01:46:28;;;;;;;7.35;2.85;;;9.20;99.90;;;;;;5023328;28;43007;-69
2022/05/31 01:48:55;;;;;;;9.38;3.20;;;9.30;99.90;;;;;;4977599;28;217535;-70
2022/05/31 01:51:22;;;;;;;9.48;2.67;;;9.20;99.90;;;;;;5007030;28;25589;-69
2022/05/31 01:53:49;;;;;;;9.77;3.03;;;9.20;99.90;;;;;;4982355;28;210244;-69
2022/05/31 01:56:16;;;;;;;7.18;2.67;;;9.30;99.90;;;;;;4988202;28;113472;-71
2022/05/31 01:58:47;;;;;;;8.27;2.83;;;9.30;99.90;;;;;;4977675;28;214127;-69
2022/05/31 02:01:13;;;;;;;;;;;9.30;99.90;;;;;;5018417;28;145196;-69
2022/05/31 02:03:41;;;;;;;7.65;2.85;;;9.30;99.90;;;;;;4975833;28;209453;-70
2022/05/31 02:06:24;;;;;;;7.35;2.70;;;9.20;99.90;;;;;;4996757;28;117760;-70
2022/05/31 02:08:51;;;;;;;7.10;2.50;;;9.30;99.90;;;;;;4972689;28;213366;-70
2022/05/31 02:11:18;;;;;;;7.35;2.38;;;9.20;99.90;;;;;;4994146;28;242966;-71
2022/05/31 02:13:45;;;;;;;6.97;2.97;;;9.30;99.90;;;;;;4973384;28;220868;-69
2022/05/31 02:16:12;;;;;;;8.07;2.65;;;9.30;99.90;;;;;;5019269;28;97531;-70
2022/05/31 02:21:23;;;;;;;8.30;2.97;;;9.30;99.90;;;;;;4989045;28;234301;-69
2022/05/31 02:23:49;;;;;;;8.75;2.92;;;9.30;99.90;;;;;;4974061;28;207065;-70
2022/05/31 02:26:15;;;;;;;10.05;2.97;;;9.30;99.90;;;;;;5001286;28;140225;-70
2022/05/31 02:28:42;;;;;;;7.25;2.83;;;9.30;99.90;;;;;;4975234;28;216029;-69
2022/05/31 02:31:08;;;;;;;7.68;2.85;;;9.30;99.90;;;;;;4999332;28;194568;-69
2022/05/31 02:33:34;;;;;;;7.55;2.85;;;9.30;99.90;;;;;;4975356;28;211029;-69
2022/05/31 02:36:00;;;;;;;8.15;2.80;;;9.30;99.90;;;;;;5003867;28;79789;-69
2022/05/31 02:38:26;;;;;;;7.40;3.10;;;9.30;99.90;;;;;;4995580;28;219656;-70
2022/05/31 02:40:52;;;;;;;7.32;2.78;;;9.30;99.90;;;;;;5000603;28;205855;-69
2022/05/31 02:43:18;;;;;;;8.10;3.00;;;9.30;99.90;;;;;;5023163;28;20049;-69
2022/05/31 02:45:45;;;;;;;7.88;3.03;;;9.30;99.90;;;;;;4950191;28;131467;-70
2022/05/31 02:48:11;;;;;;;8.60;3.13;;;9.30;99.90;;;;;;5014992;28;20064;-69
2022/05/31 02:50:40;;;;;;;7.60;2.90;;;9.30;99.90;;;;;;4960149;28;207055;-69
2022/05/31 02:53:06;;;;;;;7.97;2.92;;;9.30;99.90;;;;;;5023749;28;20038;-70
2022/05/31 02:55:33;;;;;;;7.72;3.20;;;9.30;99.90;;;;;;4955415;28;213693;-69
2022/05/31 02:57:59;;;;;;;7.68;2.88;;;9.30;99.90;;;;;;5021689;28;20057;-70
2022/05/31 03:00:25;;;;;;;8.88;3.33;;;9.30;99.90;;;;;;4963222;28;213449;-69
2022/05/31 03:02:51;;;;;;;8.90;2.88;;;9.30;99.90;;;;;;5029414;28;20478;-70
2022/05/31 03:05:17;;;;;;;8.60;3.30;;;9.30;99.90;;;;;;4950155;28;223962;-69
2022/05/31 03:07:44;;;;;;;10.52;3.50;;;9.30;99.90;;;;;;5024877;28;20045;-69
2022/05/31 03:10:10;;;;;;;11.35;3.33;;;9.30;99.90;;;;;;4970822;28;174104;-69
2022/05/31 03:12:37;;;;;;;8.10;3.40;;;9.30;99.90;;;;;;5023353;28;20041;-69
2022/05/31 03:15:10;;;;;;;8.00;3.17;;;9.30;99.90;;;;;;4951410;28;208713;-69
2022/05/31 03:18:16;;;;;;;8.48;3.40;;;9.30;99.90;;;;;;5020583;28;20072;-69
2022/05/31 03:20:51;;;;;;;9.43;4.10;;;9.30;99.90;;;;;;4903136;28;252791;-69
2022/05/31 03:23:41;;;;;;;8.57;3.65;;;9.30;99.90;;;;;;4995528;28;20050;-69
2022/05/31 03:26:10;;;;;;;9.02;4.00;;;9.30;99.90;;;;;;4938252;28;206864;-70
2022/05/31 03:28:37;;;;;;;9.13;3.95;;;9.40;99.90;;;;;;4944180;28;207273;-70
2022/05/31 03:31:04;;;;;;;9.75;3.83;;;9.40;99.90;;;;;;4984904;28;144488;-70
2022/05/31 03:33:31;;;;;;;8.30;3.47;;;9.40;99.90;;;;;;4964638;28;136323;-69
2022/05/31 03:35:57;;;;;;;11.13;4.07;;;9.40;99.90;;;;;;4955160;28;224934;-70
2022/05/31 03:38:23;;;;;;;9.32;3.55;;;9.40;99.90;;;;;;4980272;28;211206;-69
2022/05/31 03:40:59;;;;;;;9.88;3.90;;;9.40;99.90;;;;;;4945730;28;167623;-70
2022/05/31 03:43:30;;;;;;;9.23;4.05;;;9.40;99.90;;;;;;4970835;28;161414;-70
2022/05/31 03:45:57;;;;;;;8.77;3.80;;;9.40;99.90;;;;;;4947952;28;207574;-70
2022/05/31 03:48:24;;;;;;;9.05;3.50;;;9.50;99.90;;;;;;4987690;28;212551;-68
2022/05/31 03:50:58;;;;;;;10.23;4.20;;;9.50;99.90;;;;;;4925607;28;207005;-71
2022/05/31 03:53:25;;;;;;;9.05;3.83;;;9.40;99.90;;;;;;4957167;28;68240;-70
2022/05/31 03:55:51;;;;;;;8.27;3.60;;;9.50;99.90;;;;;;4945047;28;206853;-70
2022/05/31 03:58:17;;;;;;;10.75;4.10;;;9.50;99.90;;;;;;5025438;28;20062;-71
2022/05/31 04:00:43;;;;;;;11.95;3.97;;;9.50;99.90;;;;;;4983770;28;211474;-70
2022/05/31 04:03:09;;;;;;;7.85;3.35;;;9.50;99.90;;;;;;5027556;28;20061;-69
2022/05/31 04:05:35;;;;;;;12.02;4.43;;;9.50;99.90;;;;;;4950352;28;210853;-69
2022/05/31 04:08:06;;;;;;;8.90;4.15;;;9.50;99.90;;;;;;5021916;28;20391;-70
2022/05/31 04:10:32;;;;;;;8.60;3.70;;;9.50;99.90;;;;;;4951393;28;218790;-70
2022/05/31 04:12:59;;;;;;;9.07;3.83;;;9.60;99.90;;;;;;5018186;28;20056;-70
2022/05/31 04:15:26;;;;;;;9.05;3.85;;;9.60;99.90;;;;;;4948019;28;220510;-71
2022/05/31 04:17:52;;;;;;;8.38;3.85;;;9.60;99.90;;;;;;5027648;28;20219;-70
2022/05/31 04:20:19;;;;;;;11.00;4.30;;;9.60;99.90;;;;;;4977667;28;212545;-68
2022/05/31 04:22:46;;;;;;;9.38;3.85;;;9.60;99.90;;;;;;5025998;28;20045;-68
2022/05/31 04:25:12;;;;;;;8.95;4.05;;;9.70;99.90;;;;;;4948398;28;168100;-68
2022/05/31 04:27:38;;;;;;;10.73;4.25;;;9.70;99.90;;;;;;5022792;28;20065;-69
2022/05/31 04:30:05;;;;;;;9.02;4.10;;;9.70;99.90;;;;;;4960209;28;206085;-69
2022/05/31 04:32:31;;;;;;;10.43;4.57;;;9.80;99.90;;;;;;5024004;28;20049;-67
2022/05/31 04:34:57;;;;;;;8.88;4.20;;;9.80;99.90;;;;;;4948588;28;206644;-68
2022/05/31 04:37:23;;;;;;;9.65;4.07;;;9.80;99.90;;;;;;5029687;28;20042;-68
2022/05/31 04:39:49;;;;;;;10.05;4.40;;;9.80;99.90;;;;;;4969207;28;219321;-68
2022/05/31 04:42:16;;;;;;;9.68;4.30;;;9.80;99.90;;;;;;5025669;28;20042;-68
2022/05/31 04:44:42;;;;;;;9.48;4.30;;;9.80;99.90;;;;;;4958214;28;207911;-69
2022/05/31 04:47:08;;;;;;;10.02;4.43;;;9.90;99.90;;;;;;5014115;28;20060;-68
2022/05/31 04:49:35;;;;;;;11.23;4.47;;;9.90;99.90;;;;;;4968473;28;182948;-69
2022/05/31 04:52:01;;;;;;;10.82;4.35;;;9.90;99.90;;;;;;5024587;28;20406;-68
2022/05/31 04:54:30;;;;;;;9.35;4.18;;;10.00;99.90;;;;;;4968470;28;216419;-67
2022/05/31 04:57:00;;;;;;;11.85;4.35;;;10.00;99.90;;;;;;5030812;28;20064;-66
2022/05/31 04:59:26;;;;;;;8.40;4.10;;;10.00;99.90;;;;;;4958490;28;212165;-68
2022/05/31 05:01:53;;;;;;;9.38;4.40;;;10.10;99.90;;;;;;5015128;28;20060;-67
2022/05/31 05:04:19;;;;;;;10.48;4.43;;;10.10;99.90;;;;;;4938836;28;245940;-68
2022/05/31 05:06:45;;;;;;;8.77;4.50;;;10.20;99.90;;;;;;5011123;28;20052;-67
2022/05/31 05:09:11;;;;;;;10.20;4.50;;;10.20;99.90;;;;;;4969275;28;207438;-67
2022/05/31 05:11:38;;;;;;;9.45;3.88;;;10.30;99.90;;;;;;5033432;28;20050;-67
2022/05/31 05:14:05;;;;;;;10.43;4.45;;;10.30;99.90;;;;;;4968745;28;209601;-68
2022/05/31 05:16:31;;;;;;;8.75;4.15;;;10.30;99.90;;;;;;5035800;28;20466;-67
2022/05/31 05:18:57;;;;;;;10.10;4.10;;;10.40;99.90;;;;;;4974295;28;206672;-68
2022/05/31 05:21:23;;;;;;;8.80;4.10;;;10.40;99.90;;;;;;4984052;28;45200;-67
2022/05/31 05:23:49;;;;;;;11.25;4.50;;;10.40;99.90;;;;;;4977127;28;206669;-68
2022/05/31 05:26:16;;;;;;;11.65;3.83;;;10.50;99.90;;;;;;4990678;28;89370;-69
2022/05/31 05:31:30;;;;;;;9.55;4.35;;;10.60;99.90;;;;;;5002007;28;20048;-67
2022/05/31 05:33:58;;;;;;;8.77;4.50;;;10.60;99.90;;;;;;4984091;28;219386;-68
2022/05/31 05:36:24;;;;;;;9.95;4.20;;;10.60;99.90;;;;;;5005290;28;94074;-67
2022/05/31 05:38:51;;;;;;;8.50;3.70;;;10.70;99.90;;;;;;4975114;28;211963;-67
2022/05/31 05:41:19;;;;;;;9.57;4.40;;;10.60;99.90;;;;;;4984223;28;111714;-67
2022/05/31 05:43:45;;;;;;;9.55;4.20;;;10.80;99.90;;;;;;4969385;28;219090;-67
2022/05/31 05:46:15;;;;;;;10.13;4.40;;;10.80;99.90;;;;;;5002685;28;52541;-67
2022/05/31 05:48:42;;;;;;;9.10;4.30;;;10.80;99.90;;;;;;4972300;28;210152;-67
2022/05/31 05:51:20;;;;;;;8.68;4.22;;;10.90;99.90;;;;;;4998084;28;87669;-67
2022/05/31 05:53:46;;;;;;;11.05;4.72;;;11.00;99.90;;;;;;4974189;28;210526;-68
2022/05/31 05:56:13;;;;;;;9.10;4.22;;;11.00;99.90;;;;;;5016015;28;205260;-67
2022/05/31 05:58:41;;;;;;;9.90;4.47;;;11.10;99.90;;;;;;4969577;28;210320;-67
2022/05/31 06:01:11;;;;;;;9.05;4.38;;;11.20;99.90;;;;;;5006176;28;78829;-68
2022/05/31 06:04:09;;;;;;;10.68;4.32;;;11.30;99.90;;;;;;4976135;28;231117;-67
2022/05/31 06:06:38;;;;;;;9.80;4.15;;;11.30;99.90;;;;;;4966709;28;208003;-66
2022/05/31 06:09:10;;;;;;;8.88;4.50;;;11.50;99.90;;;;;;4960174;28;241765;-68
2022/05/31 06:11:44;;;;;;;13.13;4.60;;;11.50;99.90;;;;;;5031974;28;20045;-66
2022/05/31 06:14:13;;;;;;;9.68;4.18;;;11.60;99.90;;;;;;4965456;28;208200;-67
2022/05/31 06:16:44;;;;;;;10.52;4.32;;;11.70;99.90;;;;;;5030795;28;20045;-69
2022/05/31 06:19:16;;;;;;;8.65;3.90;;;11.80;99.90;;;;;;4967207;28;216829;-69
2022/05/31 06:21:43;;;;;;;10.27;4.50;;;11.80;99.90;;;;;;5032211;28;20426;-68
2022/05/31 06:24:10;;;;;;;11.57;4.50;;;11.90;99.90;;;;;;4962337;28;213567;-67
2022/05/31 06:26:36;;;;;;;10.63;4.50;;;12.10;99.90;;;;;;5030863;28;20072;-67
2022/05/31 06:29:03;;;;;;;10.57;4.68;;;12.00;99.90;;;;;;4962672;28;210880;-68
2022/05/31 06:31:29;;;;;;;9.38;4.13;;;12.10;99.90;;;;;;5016738;28;20056;-67
2022/05/31 06:33:55;;;;;;;9.23;4.10;;;12.20;99.90;;;;;;4979929;28;216261;-67
2022/05/31 06:36:21;;;;;;;10.52;4.22;;;12.30;99.90;;;;;;5006532;28;43006;-66
2022/05/31 06:38:48;;;;;;;8.38;4.00;;;12.30;99.90;;;;;;4976460;28;234082;-66
2022/05/31 06:41:14;;;;;;;11.23;4.20;;;12.40;99.90;;;;;;5017090;28;158175;-68
2022/05/31 06:43:41;;;;;;;10.73;4.60;;;12.40;99.90;;;;;;4977866;28;212452;-68
2022/05/31 06:46:10;;;;;;;10.10;4.10;;;12.50;99.90;;;;;;5023249;28;57719;-68
2022/05/31 06:48:36;;;;;;;8.60;3.97;;;12.60;99.90;;;;;;4975675;28;214694;-67
2022/05/31 06:51:05;;;;;;;9.00;4.30;;;12.80;99.90;;;;;;5014555;28;128731;-68
2022/05/31 06:58:57;;;;;;;8.75;3.58;;;13.10;99.90;;;;;;4976756;28;218240;-65
2022/05/31 07:01:37;;;;;;;8.35;3.85;;;13.30;99.90;;;;;;4994131;28;85794;-67
2022/05/31 07:04:05;;;;;;;11.65;4.10;;;13.40;99.90;;;;;;4961044;28;207677;-67
2022/05/31 07:06:32;;;;;;;10.00;3.85;;;13.60;99.90;;;;;;4993516;28;20151;-67
2022/05/31 07:08:59;;;;;;;9.15;4.10;;;13.70;99.90;;;;;;4976839;28;210430;-65
2022/05/31 07:11:26;;;;;;;8.57;3.80;;;13.80;99.90;;;;;;5006632;28;20437;-66
2022/05/31 07:13:52;;;;;;;8.27;3.20;;;13.90;99.90;;;;;;4968428;28;221765;-67
2022/05/31 07:16:18;;;;;;;8.93;3.40;;;14.10;99.90;;;;;;5006615;28;78921;-66
2022/05/31 07:18:45;;;;;;;10.77;3.60;;;14.20;99.90;;;;;;4979341;28;211078;-66
2022/05/31 07:21:11;;;;;;;8.70;3.40;;;14.30;99.90;;;;;;4991134;28;124140;-66
2022/05/31 07:23:38;;;;;;;10.30;3.83;;;14.40;99.90;;;;;;4978337;28;213165;-68
2022/05/31 07:26:04;;;;;;;9.45;3.50;;;14.60;99.90;;;;;;5016680;28;75247;-68
2022/05/31 07:28:31;;;;;;;8.97;3.30;;;14.60;99.90;;;;;;4963910;28;215217;-67
2022/05/31 07:30:57;;;;;;;7.88;3.25;;;14.70;99.90;;;;;;4999618;28;112685;-67
2022/05/31 07:33:23;;;;;;;8.77;3.28;;;14.70;99.90;;;;;;5010542;28;214989;-66
2022/05/31 07:35:50;;;;;;;8.70;3.15;;;14.80;99.90;;;;;;4972767;28;232379;-67
2022/05/31 07:38:17;;;;;;;8.52;2.90;;;15.00;99.90;;;;;;5023827;28;20061;-67
2022/05/31 07:40:44;;;;;;;9.65;3.20;;;15.40;99.90;;;;;;4966930;28;211664;-66
2022/05/31 07:43:10;;;;;;;9.07;3.17;;;15.60;99.90;;;;;;5026537;28;20057;-67
2022/05/31 07:45:37;;;;;;;7.97;2.90;;;16.10;99.90;;;;;;4967473;28;215433;-69
2022/05/31 07:48:04;;;;;;;9.07;2.92;;;16.50;99.90;;;;;;5026455;28;20057;-67
2022/05/31 07:50:31;;;;;;;7.88;2.70;;;16.80;99.90;;;;;;4974920;28;213386;-68
2022/05/31 07:52:59;;;;;;;9.07;2.70;;;17.00;99.90;;;;;;5023412;28;20317;-67
2022/05/31 07:55:27;;;;;;;9.70;2.60;;;17.30;99.90;;;;;;4956220;28;219546;-66
2022/05/31 08:00:38;;;;;;;9.50;2.92;;;18.00;99.90;;;;;;4968976;28;210923;-68
2022/05/31 08:03:05;;;;;;;7.07;2.42;;;18.30;99.90;;;;;;5024685;28;20061;-68
2022/05/31 08:05:32;;;;;;;7.20;2.22;;;18.60;99.90;;;;;;4931979;28;218217;-65
2022/05/31 08:07:58;;;;;;;12.23;2.60;;;19.00;99.90;;;;;;5016048;28;20060;-67
2022/05/31 08:10:24;;;;;;;7.82;2.15;;;19.20;99.90;;;;;;4971524;28;210352;-67
2022/05/31 08:12:50;;;;;;;8.15;2.40;;;19.50;99.90;;;;;;5031913;28;20038;-66
2022/05/31 08:15:17;;;;;;;15.38;2.70;;;19.80;99.90;;;;;;4955289;28;209738;-67
2022/05/31 08:17:45;;;;;;;8.20;2.50;;;19.90;99.90;;;;;;5033109;28;20041;-67
2022/05/31 08:20:11;;;;;;;8.77;2.60;;;20.10;99.90;;;;;;4964350;28;249578;-68
2022/05/31 08:22:37;;;;;;;8.98;2.35;;;20.30;99.90;;;;;;5025263;28;20042;-67
2022/05/31 08:25:04;;;;;;;8.98;2.30;;;20.50;99.80;;;;;;4965718;28;212647;-67
2022/05/31 08:27:32;;;;;;;7.88;2.10;;;20.90;99.40;;;;;;5030688;28;20052;-68
2022/05/31 08:29:58;;;;;;;9.10;2.65;;;21.20;99.00;;;;;;4969544;28;209044;-68
2022/05/31 08:32:24;;;;;;;8.80;2.63;;;21.60;97.30;;;;;;5026320;28;20061;-68
2022/05/31 08:34:50;;;;;;;8.75;2.30;;;21.70;92.50;;;;;;4961837;28;170294;-67
2022/05/31 08:37:16;;;;;;;8.30;2.10;;;21.90;91.70;;;;;;5021572;28;20046;-68
2022/05/31 08:39:42;;;;;;;8.25;2.47;;;22.00;88.20;;;;;;4964402;28;236622;-68
2022/05/31 08:42:13;;;;;;;9.70;2.50;;;22.20;79.70;;;;;;5033192;28;20065;-68
2022/05/31 08:45:03;;;;;;;9.88;2.28;;;22.40;79.90;;;;;;4956757;28;225293;-68
2022/05/31 08:48:08;;;;;;;8.80;2.40;;;22.60;71.30;;;;;;5007356;28;20068;-68
2022/05/31 08:56:56;;;;;;;10.30;2.47;;;23.00;67.60;;;;;;4907172;28;20567;-68
2022/05/31 08:59:34;;;;;;;;;;;22.80;65.30;;;;;;4885680;28;238143;-68
2022/05/31 09:02:05;;;;;;;8.80;2.30;;;22.70;61.10;;;;;;4924288;28;19918;-68
2022/05/31 09:04:41;;;;;;;9.48;3.10;;;22.50;64.20;;;;;;4850335;28;210580;-68
2022/05/31 09:07:12;;;;;;;11.48;2.90;;;22.50;61.90;;;;;;4928497;28;20062;-67
2022/05/31 09:09:46;;;;;;;8.90;2.72;;;22.30;60.70;;;;;;4860622;28;216745;-68
2022/05/31 09:12:39;;;;;;;9.18;2.60;;;22.20;60.70;;;;;;4941585;28;20055;-69
2022/05/31 09:15:19;;;;;;;11.70;3.72;;;22.20;60.40;;;;;;4865470;28;210677;-68
2022/05/31 09:18:16;;;;;;;9.95;3.22;;;22.10;58.50;;;;;;4925492;29;20054;-68
2022/05/31 09:20:48;;;;;;;9.48;3.10;;;22.00;58.10;;;;;;4851251;28;206224;-68
2022/05/31 09:23:39;;;;;;;8.98;3.28;;;21.90;58.70;;;;;;4983413;28;20054;-67
2022/05/31 09:26:33;;;;;;;9.45;2.92;;;21.70;57.80;;;;;;4916586;28;246834;-68
2022/05/31 09:29:12;;;;;;;9.57;2.97;;;22.00;58.10;;;;;;4940988;28;206160;-68
2022/05/31 09:32:07;;;;;;;10.10;3.05;;;22.30;55.70;;;;;;4985233;28;20549;-67
2022/05/31 09:34:45;;;;;;;10.45;3.60;;;22.20;58.60;;;;;;4967124;28;216560;-67
2022/05/31 09:37:39;;;;;;;10.25;3.60;;;22.10;58.60;;;;;;5027044;28;20554;-68
2022/05/31 09:40:20;;;;;;;12.20;3.60;;;21.70;54.90;;;;;;4954334;28;219637;-67
2022/05/31 09:43:09;;;;;;;10.15;3.47;;;21.30;56.90;;;;;;5023245;28;20054;-67
2022/05/31 09:45:41;;;;;;;9.82;3.47;;;21.20;56.90;;;;;;4950757;28;208291;-68
2022/05/31 09:48:08;;;;;;;10.00;3.40;;;21.00;57.50;;;;;;4996907;28;20061;-68
2022/05/31 09:50:34;;;;;;;9.60;3.30;;;20.80;57.50;;;;;;4972045;28;209784;-69
2022/05/31 09:57:05;;;;;;;9.25;3.20;;;20.60;58.60;;;;;;5022610;28;20045;-68
2022/05/31 09:58:38;;;;;;;9.77;3.60;;;20.40;59.20;;;;;;4975499;28;211668;-69
2022/05/31 10:01:26;;;;;;;13.02;3.90;;;20.30;57.30;;;;;;5007673;28;28037;-65
2022/05/31 10:03:55;;;;;;;11.10;4.15;;;20.30;56.10;;;;;;4977563;28;210197;-68
2022/05/31 10:06:26;;;;;;;9.90;3.50;;;20.30;56.80;;;;;;4981669;28;221569;-69
2022/05/31 10:08:54;;;;;;;13.27;3.88;;;20.40;57.40;;;;;;4977401;28;205923;-69
2022/05/31 10:11:44;;;;;;;10.88;4.07;;;20.60;57.20;;;;;;5001490;28;248849;-69
2022/05/31 10:14:32;;;;;;;8.77;3.63;;;20.60;56.80;;;;;;4967391;28;210453;-67
2022/05/31 10:17:13;;;;;;;11.38;3.70;;;20.50;56.30;;;;;;5023156;28;20053;-68
2022/05/31 10:19:39;;;;;;;11.00;3.83;;;20.50;57.00;;;;;;4953191;28;206770;-67
2022/05/31 10:22:20;;;;;;;12.07;4.13;;;20.40;57.00;;;;;;5025621;28;20080;-68
2022/05/31 10:24:46;;;;;;;10.00;3.67;;;20.30;55.60;;;;;;4966054;28;214087;-69
2022/05/31 10:27:18;;;;;;;9.88;3.40;;;20.20;57.40;;;;;;5031999;28;20360;-69
2022/05/31 10:30:02;;;;;;;10.43;3.08;;;20.30;58.00;;;;;;4967403;28;210826;-67
2022/05/31 10:32:31;;;;;;;9.50;2.70;;;20.20;54.60;;;;;;5020623;28;20407;-68
2022/05/31 10:35:19;;;;;;;9.30;2.78;;;20.10;55.00;;;;;;4971036;28;209011;-69
2022/05/31 10:38:17;;;;;;;8.95;2.97;;;20.10;54.40;;;;;;5028781;28;20060;-67
2022/05/31 10:41:07;;;;;;;9.77;3.13;;;20.20;54.90;;;;;;4967737;28;199137;-68
2022/05/31 10:43:43;;;;;;;9.15;2.80;;;20.40;56.40;;;;;;4979735;28;217009;-68
2022/05/31 10:46:37;;;;;;;8.63;3.22;;;20.50;55.80;;;;;;5016524;28;146760;-68
2022/05/31 10:49:19;;;;;;;11.07;3.25;;;20.60;54.70;;;;;;4976858;28;229171;-68
2022/05/31 10:52:04;;;;;;;11.30;3.33;;;20.60;55.60;;;;;;5027148;28;20053;-67
2022/05/31 10:55:11;;;;;;;9.27;3.00;;;20.80;56.70;;;;;;4965377;28;217476;-67
2022/05/31 10:58:01;;;;;;;10.63;3.35;;;20.90;55.80;;;;;;5029575;28;20060;-68
2022/05/31 11:00:46;;;;;;;8.63;3.00;;;21.20;58.80;;;;;;4964391;28;221347;-67
2022/05/31 11:03:24;;;;;;;9.68;2.80;;;21.60;57.20;;;;;;5025611;28;20045;-67
2022/05/31 11:06:12;;;;;;;9.82;2.85;;;21.80;52.70;;;;;;4927836;28;208186;-68
2022/05/31 11:11:59;;;;;;;10.13;2.92;;;21.90;52.40;;;;;;5012211;28;20117;-68
2022/05/31 11:14:43;;;;;;;8.32;2.50;;;22.20;52.90;;;;;;4960014;28;205869;-68
2022/05/31 11:17:32;;;;;;;8.98;2.72;;;22.50;52.10;;;;;;5020934;28;20053;-68
2022/05/31 11:20:28;;;;;;;8.80;3.00;;;22.80;51.90;;;;;;4959019;28;225421;-67
2022/05/31 11:23:05;;;;;;;8.75;2.90;;;23.00;50.10;;;;;;5026924;28;20053;-67
2022/05/31 11:25:57;;;;;;;10.30;3.00;;;23.20;52.90;;;;;;4958815;28;212503;-67
2022/05/31 11:28:48;;;;;;;10.35;3.22;;;23.50;51.70;;;;;;5012125;28;211473;-68
2022/05/31 11:31:23;;;;;;;10.90;3.00;;;24.10;49.60;;;;;;4958827;28;191835;-69
2022/05/31 11:34:11;;;;;;;8.35;2.78;;;24.90;49.20;;;;;;4979623;28;207439;-68
2022/05/31 11:37:01;;;;;;;8.93;2.95;;;25.40;47.90;;;;;;4995167;28;20056;-68
2022/05/31 11:39:42;;;;;;;8.73;2.92;;;25.30;47.90;;;;;;4960784;28;212219;-66
2022/05/31 11:42:19;;;;;;;8.75;3.10;;;25.10;48.90;;;;;;5012465;28;20441;-67
2022/05/31 11:45:00;;;;;;;8.18;3.30;;;25.10;47.50;;;;;;4964423;28;225352;-67
2022/05/31 11:47:54;;;;;;;9.85;3.08;;;24.80;46.60;;;;;;5030035;28;20402;-66
2022/05/31 11:50:49;;;;;;;8.95;3.00;;;24.90;48.20;;;;;;4967648;28;209379;-69
2022/05/31 11:53:35;;;;;;;7.82;2.70;;;25.40;48.20;;;;;;5022736;28;20057;-68
2022/05/31 11:56:03;;;;;;;11.52;3.28;;;25.60;43.70;;;;;;4973031;28;128064;-68
2022/05/31 11:58:39;;;;;;;9.48;3.05;;;25.20;45.90;;;;;;4978793;28;210011;-67
2022/05/31 12:01:11;;;;;;;9.25;2.80;;;24.90;45.00;;;;;;5013984;28;166774;-67
2022/05/31 12:03:48;;;;;;;7.72;2.67;;;24.60;45.60;;;;;;4976430;28;214552;-68
2022/05/31 12:06:27;;;;;;;9.73;2.90;;;24.40;46.10;;;;;;5004960;28;227079;-68
2022/05/31 12:09:03;;;;;;;8.27;2.75;;;24.20;45.30;;;;;;4977812;28;211722;-66
2022/05/31 12:11:40;;;;;;;8.80;2.47;;;23.90;45.80;;;;;;5011859;28;20048;-69
2022/05/31 12:14:11;;;;;;;7.97;2.55;;;23.70;47.00;;;;;;4954834;28;229815;-69
2022/05/31 12:16:39;;;;;;;11.13;3.00;;;23.50;46.90;;;;;;5005163;28;20052;-68
2022/05/31 12:19:15;;;;;;;9.68;2.67;;;23.20;46.90;;;;;;4964195;28;212623;-68
2022/05/31 12:21:52;;;;;;;10.43;3.20;;;23.00;46.50;;;;;;5011136;28;20052;-68
2022/05/31 12:24:46;;;;;;;8.57;2.87;;;22.60;45.90;;;;;;4958304;28;216026;-68
2022/05/31 12:27:20;;;;;;;7.05;2.63;;;22.20;43.90;;;;;;4961055;28;20066;-67
2022/05/31 12:29:58;;;;;;;8.00;3.10;;;21.90;46.30;;;;;;4901869;28;209376;-69
2022/05/31 12:32:39;;;;;;;8.68;3.13;;;21.50;47.00;;;;;;4962585;28;20055;-68
2022/05/31 12:35:09;;;;;;;9.77;3.33;;;21.40;47.30;;;;;;4892929;28;224143;-67
2022/05/31 12:38:00;;;;;;;8.80;3.38;;;21.40;47.40;;;;;;4941671;28;20460;-67
2022/05/31 12:40:29;;;;;;;9.93;3.63;;;21.30;47.00;;;;;;4913726;28;208524;-68
2022/05/31 12:42:55;;;;;;;10.45;3.40;;;21.10;45.20;;;;;;4954137;28;20074;-68
2022/05/31 12:45:33;;;;;;;10.07;3.40;;;20.90;45.50;;;;;;4914299;28;207055;-67
2022/05/31 12:48:13;;;;;;;11.18;3.20;;;20.60;44.50;;;;;;4956023;28;20082;-67
2022/05/31 12:51:08;;;;;;;8.63;3.42;;;20.40;47.30;;;;;;4907741;28;213062;-67
2022/05/31 12:53:37;;;;;;;10.63;3.72;;;20.20;46.00;;;;;;4917732;28;209831;-68
2022/05/31 12:56:10;;;;;;;10.32;3.75;;;19.90;48.40;;;;;;4932003;28;132681;-68
2022/05/31 12:58:45;;;;;;;9.88;3.70;;;19.80;47.50;;;;;;4922632;28;213366;-68
2022/05/31 13:01:11;;;;;;;11.27;3.80;;;19.60;48.00;;;;;;4950956;28;125092;-68
2022/05/31 13:03:42;;;;;;;8.93;3.53;;;19.50;48.70;;;;;;4939088;28;215039;-68
2022/05/31 13:06:23;;;;;;;9.02;3.75;;;19.30;46.30;;;;;;4993570;28;133845;-67
2022/05/31 13:08:52;;;;;;;9.43;3.60;;;19.10;48.00;;;;;;4995457;28;207166;-67
2022/05/31 13:20:30;;;;;;;9.73;4.72;;;18.50;48.70;;;;;;4963628;28;203912;-67
2022/05/31 13:23:00;;;;;;;11.48;4.93;;;18.30;50.30;;;;;;5024921;28;20057;-68
2022/05/31 13:25:30;;;;;;;11.63;5.00;;;18.10;51.20;;;;;;4973869;28;227423;-67
2022/05/31 13:27:59;;;;;;;10.88;5.40;;;18.10;51.60;;;;;;5019212;28;20049;-68
2022/05/31 13:30:29;;;;;;;11.23;4.78;;;17.90;52.30;;;;;;4961565;28;213142;-67
2022/05/31 13:32:57;;;;;;;12.75;4.93;;;17.80;52.80;;;;;;5026088;28;20057;-67
2022/05/31 13:35:27;;;;;;;12.50;5.45;;;17.70;53.00;;;;;;4944815;28;213704;-67
2022/05/31 13:38:00;;;;;;;10.68;4.82;;;17.70;53.00;;;;;;5029731;28;20053;-67
2022/05/31 13:40:51;;;;;;;12.00;4.75;;;17.70;53.70;;;;;;4960133;28;217808;-67
2022/05/31 13:43:20;;;;;;;12.88;5.13;;;17.60;53.60;;;;;;5026133;28;20157;-67
2022/05/31 13:45:51;;;;;;;12.88;5.30;;;17.50;54.20;;;;;;4975997;28;210977;-67